Time;durP1;ratioP1;P1;durP2;ratioP2;P2;SDS_P1;SDS_P2;PMS_P1;PMS_P2;Temp;Humidity;BMP_temperature;BMP_pressure;BME280_temperature;BME280_humidity;BME280_pressure;Samples;Min_cycle;Max_cycle;Signal;HPM_P1;HPM_P2
2023/03/12 00:01:17;;;;;;;9.90;4.10;;;7.20;1.00;;;;;;5025243;28;20222;-82
2023/03/12 00:03:46;;;;;;;9.17;4.17;;;7.00;1.00;;;;;;5016435;28;20234;-84
2023/03/12 00:06:30;;;;;;;8.53;3.77;;;7.10;1.00;;;;;;5012162;28;20195;-84
2023/03/12 00:08:56;;;;;;;12.17;4.40;;;6.90;1.00;;;;;;4994581;28;20187;-82
2023/03/12 00:11:23;;;;;;;10.33;4.33;;;6.90;1.00;;;;;;5011673;28;20202;-83
2023/03/12 00:13:54;;;;;;;9.20;4.33;;;7.00;1.00;;;;;;5011931;28;20171;-85
2023/03/12 00:16:21;;;;;;;8.77;4.47;;;6.80;1.00;;;;;;5000055;28;20234;-84
2023/03/12 00:18:52;;;;;;;7.53;4.13;;;6.90;1.00;;;;;;5034614;28;20243;-84
2023/03/12 00:21:19;;;;;;;7.83;4.63;;;6.80;1.00;;;;;;5032432;28;20247;-85
2023/03/12 00:23:47;;;;;;;7.83;4.33;;;6.70;1.00;;;;;;5016067;28;20565;-84
2023/03/12 00:26:13;;;;;;;7.27;4.17;;;6.70;1.00;;;;;;5011519;28;20194;-85
2023/03/12 00:28:42;;;;;;;10.87;4.83;;;6.70;1.00;;;;;;4995299;28;20309;-84
2023/03/12 00:31:24;;;;;;;10.37;4.90;;;6.70;1.00;;;;;;4995279;28;20179;-85
2023/03/12 00:33:54;;;;;;;8.47;4.33;;;6.70;1.00;;;;;;5012374;28;20179;-82
2023/03/12 00:36:23;;;;;;;9.87;4.20;;;6.80;1.00;;;;;;4994723;28;20194;-81
2023/03/12 00:38:51;;;;;;;9.03;4.20;;;6.60;1.00;;;;;;5010356;28;20639;-82
2023/03/12 00:41:18;;;;;;;8.73;4.97;;;6.60;1.00;;;;;;5010954;28;20721;-84
2023/03/12 00:43:49;;;;;;;7.40;4.30;;;6.50;1.00;;;;;;4996476;28;20183;-84
2023/03/12 00:46:15;;;;;;;7.77;4.23;;;6.50;1.00;;;;;;5012946;28;20179;-84
2023/03/12 00:48:43;;;;;;;7.83;4.80;;;6.40;1.00;;;;;;5013762;28;20273;-84
2023/03/12 00:51:09;;;;;;;8.73;4.37;;;6.40;1.00;;;;;;5000240;28;20185;-82
2023/03/12 00:53:36;;;;;;;10.60;4.50;;;6.50;1.00;;;;;;4998022;28;20199;-87
2023/03/12 00:56:02;;;;;;;7.50;4.07;;;6.50;1.00;;;;;;5013403;28;20325;-85
2023/03/12 00:58:28;;;;;;;8.17;4.07;;;6.40;1.00;;;;;;5024748;28;20179;-83
2023/03/12 01:00:53;;;;;;;9.80;4.30;;;6.30;1.00;;;;;;5019840;28;20524;-84
2023/03/12 01:03:20;;;;;;;9.53;4.53;;;6.40;6.60;;;;;;5013632;28;20254;-84
2023/03/12 01:05:48;;;;;;;8.80;4.03;;;6.30;11.50;;;;;;5011779;28;20195;-85
2023/03/12 01:08:13;;;;;;;6.10;3.70;;;6.30;15.70;;;;;;5009989;28;20183;-84
2023/03/12 01:10:43;;;;;;;9.23;3.70;;;6.20;21.10;;;;;;5011308;28;20550;-83
2023/03/12 01:13:09;;;;;;;6.90;3.47;;;6.20;26.50;;;;;;5011878;28;20171;-85
2023/03/12 01:15:35;;;;;;;5.97;3.40;;;6.30;29.90;;;;;;5010374;28;20197;-84
2023/03/12 01:18:00;;;;;;;8.60;3.80;;;6.30;31.10;;;;;;5010865;28;20747;-84
2023/03/12 01:20:26;;;;;;;7.03;3.70;;;6.20;36.30;;;;;;4993893;28;20509;-82
2023/03/12 01:22:53;;;;;;;9.40;4.13;;;6.10;42.70;;;;;;5012819;28;20206;-83
2023/03/12 01:25:19;;;;;;;6.33;3.87;;;6.20;43.00;;;;;;4996795;28;20624;-85
2023/03/12 01:27:46;;;;;;;7.13;3.47;;;6.50;43.70;;;;;;5011909;28;20179;-82
2023/03/12 01:30:12;;;;;;;7.60;3.27;;;6.30;44.80;;;;;;5011958;28;20207;-84
2023/03/12 01:32:37;;;;;;;7.93;3.57;;;6.30;46.40;;;;;;5011099;28;20163;-82
2023/03/12 01:35:04;;;;;;;4.80;2.90;;;6.20;47.50;;;;;;5011016;28;20186;-84
2023/03/12 01:37:31;;;;;;;5.17;2.97;;;6.20;51.20;;;;;;5011263;28;20209;-83
2023/03/12 01:39:57;;;;;;;5.37;3.23;;;6.00;52.00;;;;;;5012915;28;20261;-83
2023/03/12 01:42:25;;;;;;;11.50;3.67;;;6.10;53.10;;;;;;5012225;28;20175;-83
2023/03/12 01:45:00;;;;;;;5.60;2.90;;;6.00;54.80;;;;;;5030105;28;20194;-82
2023/03/12 01:47:30;;;;;;;6.93;2.90;;;5.90;59.20;;;;;;5008467;28;20166;-82
2023/03/12 01:50:33;;;;;;;7.83;3.07;;;6.00;58.20;;;;;;5016304;28;20175;-84
2023/03/12 01:53:02;;;;;;;6.63;2.70;;;6.00;58.80;;;;;;5003640;28;20163;-83
2023/03/12 01:55:28;;;;;;;5.23;3.03;;;6.00;58.70;;;;;;5019223;28;20178;-81
2023/03/12 01:57:57;;;;;;;8.20;3.20;;;6.00;58.90;;;;;;5017938;28;20233;-83
2023/03/12 02:00:25;;;;;;;6.07;2.97;;;6.00;59.10;;;;;;5018658;28;20163;-83
2023/03/12 02:02:58;;;;;;;7.83;3.03;;;6.10;58.70;;;;;;5017808;28;20222;-84
2023/03/12 02:06:02;;;;;;;5.53;2.63;;;6.00;57.70;;;;;;5012905;28;20223;-84
2023/03/12 02:08:28;;;;;;;5.33;2.83;;;6.10;58.60;;;;;;5028272;28;20245;-84
2023/03/12 02:10:53;;;;;;;6.87;2.90;;;6.10;59.30;;;;;;4995156;28;20174;-83
2023/03/12 02:13:20;;;;;;;8.17;3.03;;;6.20;57.80;;;;;;5009893;28;20207;-84
2023/03/12 02:15:46;;;;;;;4.67;2.80;;;6.20;56.70;;;;;;5027306;28;20175;-83
2023/03/12 02:18:17;;;;;;;6.87;2.80;;;6.20;57.20;;;;;;4995572;28;20179;-83
2023/03/12 02:21:08;;;;;;;7.87;2.50;;;6.20;56.20;;;;;;5009567;28;20210;-82
2023/03/12 02:24:01;;;;;;;4.77;2.93;;;6.20;56.20;;;;;;5026163;28;20186;-84
2023/03/12 02:26:28;;;;;;;5.90;2.70;;;6.20;56.10;;;;;;4993008;28;20179;-82
2023/03/12 02:28:55;;;;;;;7.07;2.80;;;6.20;56.40;;;;;;5010059;28;20186;-81
2023/03/12 02:31:24;;;;;;;7.10;3.00;;;6.20;55.90;;;;;;5009024;28;20228;-83
2023/03/12 02:33:51;;;;;;;3.90;2.07;;;6.20;54.80;;;;;;5009154;28;20236;-84
2023/03/12 02:36:19;;;;;;;8.77;2.60;;;6.20;58.10;;;;;;5009142;28;20670;-82
2023/03/12 02:38:47;;;;;;;5.67;2.50;;;6.10;57.20;;;;;;5009522;28;20623;-84
2023/03/12 02:41:21;;;;;;;6.10;3.03;;;6.20;57.20;;;;;;5008880;28;20175;-84
2023/03/12 02:44:10;;;;;;;5.17;2.50;;;6.00;59.10;;;;;;5008842;28;20580;-84
2023/03/12 02:46:41;;;;;;;8.63;2.90;;;6.10;63.30;;;;;;5008585;28;20666;-83
2023/03/12 02:49:07;;;;;;;5.40;2.33;;;6.00;62.10;;;;;;5009792;28;20174;-83
2023/03/12 02:51:33;;;;;;;6.07;2.70;;;5.80;64.20;;;;;;5008939;28;20665;-83
2023/03/12 02:53:59;;;;;;;7.47;3.20;;;5.70;68.70;;;;;;5015105;28;20171;-84
2023/03/12 02:56:26;;;;;;;7.97;2.77;;;5.70;68.80;;;;;;5021611;28;20211;-83
2023/03/12 02:58:55;;;;;;;5.40;2.93;;;5.60;69.60;;;;;;5009603;28;20178;-83
2023/03/12 03:01:24;;;;;;;7.30;3.57;;;5.70;71.10;;;;;;5009504;28;20171;-82
2023/03/12 03:03:50;;;;;;;9.77;3.17;;;5.80;71.70;;;;;;5013156;28;20183;-86
2023/03/12 03:06:17;;;;;;;6.47;2.47;;;5.60;71.60;;;;;;5013130;28;20631;-84
2023/03/12 03:08:45;;;;;;;7.30;2.70;;;5.60;72.40;;;;;;5011763;28;20190;-84
2023/03/12 03:11:10;;;;;;;7.07;2.87;;;5.70;73.00;;;;;;5013187;28;20182;-83
2023/03/12 03:13:36;;;;;;;4.57;3.00;;;5.70;72.40;;;;;;5013037;28;20205;-84
2023/03/12 03:16:02;;;;;;;5.67;2.80;;;5.70;71.10;;;;;;4997135;28;20202;-84
2023/03/12 03:18:30;;;;;;;7.20;3.17;;;5.80;70.60;;;;;;4997827;28;20646;-81
2023/03/12 03:20:59;;;;;;;5.20;2.83;;;5.70;69.60;;;;;;5021516;28;20179;-80
2023/03/12 03:23:28;;;;;;;5.20;2.60;;;5.70;70.40;;;;;;5007279;28;20512;-83
2023/03/12 03:26:07;;;;;;;6.13;3.00;;;5.80;70.70;;;;;;5013579;28;20187;-82
2023/03/12 03:28:33;;;;;;;6.63;2.77;;;5.90;70.00;;;;;;5012719;28;20539;-83
2023/03/12 03:31:00;;;;;;;6.70;2.80;;;5.90;68.90;;;;;;5012056;28;20186;-83
2023/03/12 03:33:27;;;;;;;6.63;3.00;;;6.10;68.50;;;;;;5013072;28;20585;-82
2023/03/12 03:35:54;;;;;;;8.80;2.97;;;5.80;69.60;;;;;;5012702;28;20641;-82
2023/03/12 03:38:21;;;;;;;7.13;3.07;;;5.80;72.70;;;;;;5000455;28;20271;-82
2023/03/12 03:40:47;;;;;;;4.70;3.00;;;5.90;74.10;;;;;;5030245;28;20178;-82
2023/03/12 03:43:13;;;;;;;3.90;2.60;;;5.90;74.90;;;;;;5018952;28;20182;-80
2023/03/12 03:45:38;;;;;;;7.40;3.30;;;5.70;75.70;;;;;;5014199;28;20210;-81
2023/03/12 03:48:14;;;;;;;8.57;3.87;;;5.70;78.00;;;;;;5013595;28;20179;-86
2023/03/12 03:50:46;;;;;;;6.17;2.90;;;5.80;77.70;;;;;;5013589;28;20183;-81
2023/03/12 03:53:12;;;;;;;8.17;3.10;;;5.80;77.70;;;;;;5011861;28;20175;-85
2023/03/12 03:55:38;;;;;;;8.17;3.30;;;5.90;79.00;;;;;;4997879;28;20665;-83
2023/03/12 03:58:05;;;;;;;6.40;2.80;;;5.90;78.00;;;;;;5026858;28;20214;-86
2023/03/12 04:00:31;;;;;;;8.33;3.80;;;5.90;78.40;;;;;;5051664;28;20170;-83
2023/03/12 04:02:58;;;;;;;4.77;3.23;;;5.90;78.50;;;;;;5044002;28;20171;-82
2023/03/12 04:05:27;;;;;;;6.50;3.33;;;5.90;80.10;;;;;;5032539;28;20194;-82
2023/03/12 04:07:53;;;;;;;6.23;3.33;;;5.80;82.60;;;;;;5025076;28;20569;-82
2023/03/12 04:10:20;;;;;;;6.23;3.73;;;5.80;84.70;;;;;;5033609;28;20674;-83
2023/03/12 04:12:46;;;;;;;6.90;3.77;;;5.90;85.90;;;;;;5017745;28;20177;-81
2023/03/12 04:15:15;;;;;;;7.97;3.43;;;5.90;85.40;;;;;;5052158;28;20170;-86
2023/03/12 04:17:40;;;;;;;6.30;3.67;;;5.90;86.90;;;;;;5045325;28;20234;-82
2023/03/12 04:23:28;;;;;;;5.27;3.63;;;5.80;90.40;;;;;;5016844;28;20161;-83
2023/03/12 04:25:57;;;;;;;7.47;3.70;;;5.90;91.90;;;;;;5006580;28;20183;-82
2023/03/12 04:28:23;;;;;;;7.23;3.80;;;5.90;92.80;;;;;;5011436;28;20175;-83
2023/03/12 04:31:00;;;;;;;5.67;3.63;;;5.90;93.60;;;;;;5011178;28;20175;-83
2023/03/12 04:33:27;;;;;;;6.93;3.47;;;5.80;94.80;;;;;;5011328;28;20171;-84
2023/03/12 04:35:53;;;;;;;6.60;3.60;;;5.90;96.00;;;;;;5032191;28;20186;-85
2023/03/12 04:38:21;;;;;;;9.20;3.63;;;6.10;96.50;;;;;;5009899;28;20183;-84
2023/03/12 04:40:47;;;;;;;11.67;4.70;;;5.90;96.80;;;;;;4994791;28;20262;-85
2023/03/12 04:43:13;;;;;;;6.50;3.70;;;5.90;97.70;;;;;;5011444;28;20183;-84
2023/03/12 04:45:38;;;;;;;6.97;4.47;;;5.90;98.40;;;;;;5002997;28;20258;-83
2023/03/12 04:48:05;;;;;;;8.73;4.07;;;5.90;98.80;;;;;;5021592;28;20175;-85
2023/03/12 04:50:34;;;;;;;9.57;4.40;;;5.90;99.90;;;;;;5011956;28;20237;-83
2023/03/12 04:53:01;;;;;;;8.83;4.00;;;5.90;99.90;;;;;;5011367;28;20182;-83
2023/03/12 04:55:27;;;;;;;7.57;4.57;;;5.80;99.90;;;;;;5001355;28;20175;-82
2023/03/12 04:57:53;;;;;;;8.57;5.23;;;5.80;99.90;;;;;;5023419;28;20214;-82
2023/03/12 05:00:21;;;;;;;7.00;4.80;;;5.80;99.90;;;;;;5014946;28;20186;-83
2023/03/12 05:02:48;;;;;;;8.70;4.67;;;5.90;99.90;;;;;;4995426;28;20183;-85
2023/03/12 05:05:14;;;;;;;12.17;5.33;;;5.80;99.90;;;;;;5011102;28;20202;-82
2023/03/12 05:07:40;;;;;;;7.77;4.47;;;5.90;99.90;;;;;;5010699;28;20195;-83
2023/03/12 05:10:07;;;;;;;9.80;5.13;;;5.90;99.90;;;;;;4994583;28;20666;-82
2023/03/12 05:12:33;;;;;;;9.57;5.30;;;5.90;99.90;;;;;;5010967;28;20213;-83
2023/03/12 05:14:59;;;;;;;7.47;5.50;;;5.90;99.90;;;;;;5010879;28;20178;-85
2023/03/12 05:17:25;;;;;;;8.50;5.27;;;5.90;99.90;;;;;;4993187;28;20590;-83
2023/03/12 05:19:50;;;;;;;8.53;4.80;;;5.90;99.90;;;;;;5011421;28;20179;-84
2023/03/12 05:22:16;;;;;;;7.17;4.93;;;5.90;99.90;;;;;;4994232;28;20179;-83
2023/03/12 05:24:43;;;;;;;9.90;5.43;;;5.90;99.90;;;;;;5014540;28;20167;-84
2023/03/12 05:27:10;;;;;;;8.30;5.50;;;6.00;99.90;;;;;;5018353;28;20209;-83
2023/03/12 05:29:36;;;;;;;8.10;5.67;;;6.00;99.90;;;;;;5021909;28;20178;-82
2023/03/12 05:32:02;;;;;;;7.50;5.47;;;6.00;99.90;;;;;;5026465;28;20183;-83
2023/03/12 05:34:31;;;;;;;8.07;5.93;;;6.00;99.90;;;;;;5016620;28;20175;-83
2023/03/12 05:36:57;;;;;;;10.97;6.23;;;6.10;99.90;;;;;;5011588;28;20218;-84
2023/03/12 05:39:24;;;;;;;10.07;6.33;;;6.10;99.90;;;;;;5019153;28;20183;-82
2023/03/12 05:42:10;;;;;;;10.43;5.83;;;6.10;99.90;;;;;;5014931;28;20179;-84
2023/03/12 05:44:39;;;;;;;7.93;6.17;;;6.20;99.90;;;;;;5010922;28;20266;-83
2023/03/12 05:47:06;;;;;;;8.73;6.40;;;6.30;99.90;;;;;;5011074;28;20186;-83
2023/03/12 05:49:32;;;;;;;8.00;6.17;;;6.50;99.90;;;;;;4994296;28;20175;-82
2023/03/12 05:51:59;;;;;;;9.50;7.10;;;6.30;99.90;;;;;;5010381;28;20175;-83
2023/03/12 05:54:26;;;;;;;11.57;7.90;;;6.40;99.90;;;;;;4996033;28;20234;-85
2023/03/12 05:56:54;;;;;;;8.67;7.77;;;6.50;99.90;;;;;;4993909;28;20206;-83
2023/03/12 05:59:20;;;;;;;11.50;8.23;;;6.60;99.90;;;;;;5010517;28;20170;-83
2023/03/12 06:01:48;;;;;;;11.87;7.87;;;6.60;99.90;;;;;;5012496;28;20171;-86
2023/03/12 06:04:14;;;;;;;11.77;8.30;;;6.70;99.90;;;;;;5011901;28;20198;-87
2023/03/12 06:06:39;;;;;;;14.07;8.97;;;6.80;99.90;;;;;;5009938;28;20171;-83
2023/03/12 06:09:05;;;;;;;10.50;8.30;;;6.80;99.90;;;;;;4993631;28;20626;-83
2023/03/12 06:11:33;;;;;;;10.90;8.40;;;6.80;99.90;;;;;;5010450;28;20179;-84
2023/03/12 06:13:59;;;;;;;10.60;8.43;;;6.80;99.90;;;;;;5022171;28;20186;-83
2023/03/12 06:16:26;;;;;;;12.27;7.97;;;6.90;99.90;;;;;;5014336;28;20282;-84
2023/03/12 06:18:57;;;;;;;10.53;9.17;;;6.80;99.90;;;;;;5009864;28;20214;-84
2023/03/12 06:21:26;;;;;;;14.27;9.47;;;6.80;99.90;;;;;;5010497;28;20512;-85
2023/03/12 06:23:53;;;;;;;13.10;9.77;;;6.90;99.90;;;;;;5009170;28;20191;-83
2023/03/12 06:26:20;;;;;;;12.43;10.03;;;6.90;99.90;;;;;;5010735;28;20174;-84
2023/03/12 06:28:49;;;;;;;13.50;10.17;;;7.10;99.90;;;;;;5034038;28;20175;-87
2023/03/12 06:31:16;;;;;;;13.70;10.03;;;7.00;99.90;;;;;;5019471;28;20194;-86
2023/03/12 06:33:45;;;;;;;14.17;11.03;;;7.00;99.90;;;;;;5013765;28;20194;-84
2023/03/12 06:36:14;;;;;;;14.50;10.90;;;7.10;99.90;;;;;;5017214;28;20202;-84
2023/03/12 06:38:40;;;;;;;12.90;10.70;;;7.10;99.90;;;;;;5018395;28;20191;-85
2023/03/12 06:41:15;;;;;;;14.10;11.30;;;7.10;99.90;;;;;;5014321;28;20700;-83
2023/03/12 06:43:41;;;;;;;14.43;11.50;;;7.30;99.90;;;;;;5014714;28;20267;-83
2023/03/12 06:46:10;;;;;;;16.40;11.67;;;7.50;99.90;;;;;;5014574;28;20209;-84
2023/03/12 06:48:36;;;;;;;15.40;11.17;;;7.20;99.90;;;;;;5014773;28;20175;-85
2023/03/12 06:51:05;;;;;;;14.50;11.17;;;7.40;99.90;;;;;;4998739;28;20179;-85
2023/03/12 06:53:32;;;;;;;19.30;12.27;;;7.40;99.90;;;;;;5014108;28;20183;-85
2023/03/12 06:55:58;;;;;;;19.93;12.30;;;7.40;99.90;;;;;;5014108;28;20182;-85
2023/03/12 06:58:25;;;;;;;14.60;11.43;;;7.50;99.90;;;;;;5015294;28;20175;-84
2023/03/12 07:00:51;;;;;;;18.20;12.20;;;7.40;99.90;;;;;;5014780;28;20175;-84
2023/03/12 07:03:17;;;;;;;17.03;12.33;;;7.60;99.90;;;;;;4998930;28;20662;-83
2023/03/12 07:05:46;;;;;;;18.17;12.87;;;7.70;99.90;;;;;;5017206;28;20190;-84
2023/03/12 07:08:12;;;;;;;18.00;12.87;;;7.70;99.90;;;;;;5035983;28;20252;-88
2023/03/12 07:10:37;;;;;;;17.47;13.10;;;7.70;99.90;;;;;;5026670;28;20175;-85
2023/03/12 07:13:03;;;;;;;17.70;12.97;;;7.70;99.90;;;;;;5015662;28;20321;-84
2023/03/12 07:15:29;;;;;;;17.53;12.83;;;8.00;99.90;;;;;;4999717;28;20179;-86
2023/03/12 07:17:54;;;;;;;21.10;14.27;;;8.00;99.90;;;;;;5014732;28;20221;-85
2023/03/12 07:20:20;;;;;;;21.20;13.97;;;8.00;99.90;;;;;;4999254;28;20163;-88
2023/03/12 07:22:45;;;;;;;19.10;13.20;;;8.00;99.90;;;;;;5015078;28;20182;-84
2023/03/12 07:25:11;;;;;;;17.13;13.53;;;8.00;99.90;;;;;;5025644;28;20186;-83
2023/03/12 07:27:37;;;;;;;21.07;14.20;;;8.20;99.90;;;;;;5023337;28;20182;-84
2023/03/12 07:30:03;;;;;;;19.63;14.70;;;8.30;99.90;;;;;;5013703;28;20182;-84
2023/03/12 07:32:33;;;;;;;21.67;14.33;;;8.30;99.90;;;;;;5014317;28;20187;-84
2023/03/12 07:35:01;;;;;;;24.60;15.63;;;8.30;99.90;;;;;;5011537;28;20167;-85
2023/03/12 07:37:27;;;;;;;23.30;13.93;;;8.40;99.90;;;;;;5030141;28;20222;-85
2023/03/12 07:39:53;;;;;;;24.00;14.50;;;8.40;99.90;;;;;;5027657;28;20233;-85
2023/03/12 07:42:19;;;;;;;24.30;15.67;;;8.60;99.90;;;;;;5016048;28;20221;-84
2023/03/12 07:44:45;;;;;;;22.13;14.87;;;8.70;99.90;;;;;;5000160;28;20267;-84
2023/03/12 07:47:11;;;;;;;29.77;15.77;;;8.80;99.90;;;;;;5015004;28;20234;-86
2023/03/12 07:49:40;;;;;;;28.00;14.97;;;8.80;99.90;;;;;;5012207;28;20171;-87
2023/03/12 07:52:10;;;;;;;32.10;15.67;;;9.00;99.90;;;;;;5014060;28;20212;-86
2023/03/12 07:54:38;;;;;;;33.13;16.53;;;8.90;99.90;;;;;;5016776;28;20163;-86
2023/03/12 07:57:05;;;;;;;32.80;17.13;;;8.90;99.90;;;;;;5014697;28;20214;-87
2023/03/12 07:59:31;;;;;;;38.07;16.33;;;9.00;99.90;;;;;;5013990;28;20179;-85
2023/03/12 08:01:58;;;;;;;43.70;17.77;;;9.10;99.90;;;;;;5014488;28;20202;-84
2023/03/12 08:04:26;;;;;;;40.90;18.97;;;9.10;99.90;;;;;;5016132;28;20263;-86
2023/03/12 08:06:51;;;;;;;41.77;19.23;;;9.10;99.90;;;;;;5012377;28;20191;-86
2023/03/12 08:09:17;;;;;;;48.60;18.20;;;9.30;99.90;;;;;;5013126;28;20190;-83
2023/03/12 08:11:42;;;;;;;55.83;19.23;;;9.30;99.90;;;;;;5029930;28;20186;-84
2023/03/12 08:14:08;;;;;;;53.97;19.43;;;9.30;99.90;;;;;;5012081;28;20171;-86
2023/03/12 08:16:34;;;;;;;54.93;19.87;;;9.30;99.90;;;;;;4996443;28;20214;-86
2023/03/12 08:18:59;;;;;;;49.87;19.83;;;9.30;99.90;;;;;;5013521;28;20206;-86
2023/03/12 08:21:25;;;;;;;54.57;20.43;;;9.40;99.90;;;;;;5013570;28;20159;-86
2023/03/12 08:23:51;;;;;;;54.67;19.80;;;9.60;99.90;;;;;;5011943;28;20182;-84
2023/03/12 08:26:16;;;;;;;45.17;18.83;;;9.50;99.90;;;;;;5014510;28;20171;-86
2023/03/12 08:28:42;;;;;;;48.80;20.10;;;9.60;99.90;;;;;;4996828;28;20179;-87
2023/03/12 08:31:08;;;;;;;58.37;20.07;;;9.60;99.90;;;;;;5013821;28;20187;-84
2023/03/12 08:33:34;;;;;;;56.73;20.27;;;9.80;99.90;;;;;;5012861;28;20269;-87
2023/03/12 08:36:01;;;;;;;42.57;18.60;;;9.60;99.90;;;;;;4999039;28;20174;-87
2023/03/12 08:38:27;;;;;;;51.97;19.10;;;9.80;99.90;;;;;;5001064;28;20310;-87
2023/03/12 08:40:57;;;;;;;62.20;19.63;;;9.80;99.90;;;;;;5035681;28;20174;-88
2023/03/12 08:43:23;;;;;;;50.63;19.20;;;10.00;99.90;;;;;;5054575;28;20172;-85
2023/03/12 08:45:56;;;;;;;41.43;16.23;;;10.00;99.90;;;;;;5043255;28;20178;-84
2023/03/12 08:48:30;;;;;;;54.60;16.90;;;10.10;99.90;;;;;;5040260;28;20204;-86
2023/03/12 08:51:33;;;;;;;45.00;16.07;;;10.10;99.90;;;;;;5038448;28;20170;-87
2023/03/12 08:53:58;;;;;;;40.67;14.83;;;10.30;99.90;;;;;;5039500;28;20182;-89
2023/03/12 08:56:24;;;;;;;50.03;14.43;;;10.30;99.90;;;;;;5038711;28;20294;-88
2023/03/12 08:58:51;;;;;;;51.33;14.53;;;10.30;99.90;;;;;;5037649;28;20186;-87
2023/03/12 09:01:16;;;;;;;50.50;13.93;;;10.40;99.90;;;;;;5029203;28;20151;-86
2023/03/12 09:03:42;;;;;;;48.50;13.60;;;10.70;99.90;;;;;;5054711;28;20169;-85
2023/03/12 09:06:13;;;;;;;43.07;12.33;;;10.60;99.90;;;;;;5054316;28;20158;-86
2023/03/12 09:08:46;;;;;;;39.33;12.07;;;10.70;99.90;;;;;;5054731;28;20201;-83
2023/03/12 09:11:13;;;;;;;31.40;11.57;;;10.80;99.90;;;;;;5043597;28;20183;-82
2023/03/12 09:13:42;;;;;;;35.47;9.83;;;10.80;99.90;;;;;;5035064;28;20162;-83
2023/03/12 09:16:08;;;;;;;36.90;12.00;;;10.90;99.90;;;;;;5034845;28;20179;-86
2023/03/12 09:18:36;;;;;;;45.03;11.63;;;10.90;99.90;;;;;;5031223;28;20237;-86
2023/03/12 09:21:05;;;;;;;40.57;10.87;;;11.20;99.90;;;;;;5024301;28;20193;-85
2023/03/12 09:23:33;;;;;;;43.07;10.10;;;11.20;99.90;;;;;;5023413;28;20229;-84
2023/03/12 09:25:59;;;;;;;35.53;10.00;;;11.10;99.90;;;;;;5018593;28;20167;-83
2023/03/12 09:28:27;;;;;;;40.60;9.87;;;11.20;99.90;;;;;;5003968;28;20159;-85
2023/03/12 09:31:05;;;;;;;42.53;10.00;;;11.30;99.90;;;;;;4995102;28;20163;-86
2023/03/12 09:33:35;;;;;;;42.43;11.37;;;11.40;99.90;;;;;;5014701;28;20171;-86
2023/03/12 09:36:12;;;;;;;34.90;9.63;;;11.50;99.90;;;;;;5015169;28;20160;-85
2023/03/12 09:38:41;;;;;;;32.60;9.30;;;11.50;99.90;;;;;;5023507;28;20238;-85
2023/03/12 09:41:24;;;;;;;45.10;9.73;;;11.50;99.90;;;;;;5025864;28;20203;-84
2023/03/12 09:44:18;;;;;;;37.10;10.73;;;11.60;99.90;;;;;;5014132;28;20182;-86
2023/03/12 09:46:50;;;;;;;40.50;9.33;;;11.60;99.90;;;;;;4998475;28;20692;-86
2023/03/12 09:49:29;;;;;;;36.03;9.17;;;11.80;99.90;;;;;;5017051;28;20190;-86
2023/03/12 09:51:57;;;;;;;34.93;8.83;;;11.90;99.90;;;;;;5008699;28;20654;-86
2023/03/12 09:54:45;;;;;;;38.73;9.40;;;11.80;99.90;;;;;;5025650;28;20177;-84
2023/03/12 09:57:18;;;;;;;38.07;9.00;;;11.70;99.90;;;;;;5023883;28;20210;-86
2023/03/12 09:59:43;;;;;;;34.27;8.87;;;11.80;99.90;;;;;;5011623;28;20210;-85
2023/03/12 10:02:38;;;;;;;37.33;9.07;;;11.90;99.90;;;;;;5011092;28;20635;-85
2023/03/12 10:05:37;;;;;;;35.60;9.57;;;11.90;99.90;;;;;;5009674;28;20199;-85
2023/03/12 10:08:06;;;;;;;29.90;8.20;;;12.10;99.90;;;;;;4993132;28;20547;-86
2023/03/12 10:10:50;;;;;;;34.93;9.30;;;12.10;99.90;;;;;;5011132;28;20183;-86
2023/03/12 10:13:44;;;;;;;33.70;9.40;;;12.00;99.00;;;;;;5011872;28;20178;-86
2023/03/12 10:16:38;;;;;;;45.93;9.87;;;11.90;99.90;;;;;;5024566;28;20209;-87
2023/03/12 10:19:03;;;;;;;36.37;8.60;;;11.90;99.90;;;;;;5029307;28;20180;-86
2023/03/12 10:21:44;;;;;;;33.40;8.83;;;12.00;99.90;;;;;;5011088;28;20170;-85
2023/03/12 10:24:21;;;;;;;33.33;9.47;;;12.00;99.10;;;;;;5026222;28;20183;-86
2023/03/12 10:26:50;;;;;;;38.50;9.70;;;12.20;98.60;;;;;;5026295;28;20174;-86
2023/03/12 10:29:25;;;;;;;37.87;8.97;;;12.20;96.60;;;;;;5010210;28;20258;-84
2023/03/12 10:32:11;;;;;;;38.77;9.13;;;12.20;95.60;;;;;;4994028;28;20162;-86
2023/03/12 10:35:02;;;;;;;34.90;8.63;;;12.30;94.50;;;;;;5012195;28;20591;-85
2023/03/12 10:37:34;;;;;;;35.77;8.77;;;12.30;93.80;;;;;;4997581;28;20210;-86
2023/03/12 10:40:01;;;;;;;34.23;8.63;;;12.30;93.50;;;;;;4996997;28;20674;-86
2023/03/12 10:42:29;;;;;;;29.17;7.93;;;12.20;93.70;;;;;;4993424;28;20191;-84
2023/03/12 10:45:31;;;;;;;31.87;8.70;;;12.30;93.10;;;;;;5011354;28;20217;-84
2023/03/12 10:48:03;;;;;;;39.70;9.63;;;12.40;94.60;;;;;;4999145;28;20490;-84
2023/03/12 10:50:31;;;;;;;40.77;9.70;;;12.50;93.70;;;;;;5016301;28;20163;-86
2023/03/12 10:53:30;;;;;;;31.53;8.83;;;12.30;94.70;;;;;;5009341;28;20171;-84
2023/03/12 10:56:12;;;;;;;37.70;8.93;;;12.30;93.60;;;;;;5009564;28;20171;-85
2023/03/12 10:58:43;;;;;;;34.47;9.90;;;12.50;94.40;;;;;;5032255;28;20506;-85
2023/03/12 11:01:26;;;;;;;29.63;8.40;;;12.50;94.60;;;;;;4998624;28;20167;-85
2023/03/12 11:04:06;;;;;;;34.90;10.40;;;12.50;95.50;;;;;;5010304;28;20256;-85
2023/03/12 11:06:32;;;;;;;35.37;10.27;;;12.40;95.50;;;;;;5018783;28;20248;-86
2023/03/12 11:09:27;;;;;;;33.17;10.17;;;12.60;95.70;;;;;;5018322;28;20647;-88
2023/03/12 11:11:52;;;;;;;32.03;9.40;;;12.60;95.70;;;;;;5010721;28;20678;-87
2023/03/12 11:14:22;;;;;;;35.13;9.07;;;12.70;94.50;;;;;;5018058;28;20230;-87
2023/03/12 11:16:49;;;;;;;33.07;9.47;;;12.70;92.70;;;;;;5019044;28;20206;-87
2023/03/12 11:19:34;;;;;;;28.80;8.93;;;12.80;91.20;;;;;;5021540;28;20167;-88
2023/03/12 11:22:10;;;;;;;32.57;9.77;;;12.80;91.10;;;;;;5003124;28;20178;-88
2023/03/12 11:24:54;;;;;;;39.03;10.90;;;12.80;90.00;;;;;;5032973;28;20308;-86
2023/03/12 11:27:49;;;;;;;31.30;9.43;;;12.80;90.10;;;;;;5037357;28;20193;-87
2023/03/12 11:30:19;;;;;;;35.63;9.90;;;12.70;87.50;;;;;;5008238;28;20189;-85
2023/03/12 11:32:48;;;;;;;34.07;11.27;;;12.60;89.40;;;;;;5014769;28;20182;-86
2023/03/12 11:35:16;;;;;;;38.70;9.83;;;12.70;90.80;;;;;;5015353;28;20207;-86
2023/03/12 11:37:47;;;;;;;33.57;8.87;;;12.90;88.80;;;;;;5009629;28;20217;-86
2023/03/12 11:40:36;;;;;;;32.00;9.60;;;13.10;84.20;;;;;;4995233;28;20179;-86
2023/03/12 11:43:26;;;;;;;29.37;7.83;;;13.10;81.50;;;;;;5010015;28;20184;-87
2023/03/12 11:45:51;;;;;;;31.40;8.70;;;13.00;81.80;;;;;;5028315;28;20202;-87
2023/03/12 11:48:48;;;;;;;34.47;9.97;;;13.10;86.50;;;;;;5050956;28;20191;-91
2023/03/12 11:51:25;;;;;;;37.47;10.23;;;13.00;85.80;;;;;;5037842;28;20187;-87
2023/03/12 11:53:59;;;;;;;38.80;10.67;;;12.80;81.50;;;;;;5018216;28;20293;-86
2023/03/12 11:56:47;;;;;;;37.17;10.03;;;13.00;79.80;;;;;;5000902;28;20194;-86
2023/03/12 11:59:29;;;;;;;40.17;10.37;;;12.90;79.10;;;;;;5013832;28;20182;-86
2023/03/12 12:02:22;;;;;;;28.67;9.47;;;12.90;80.20;;;;;;4998349;28;20203;-86
2023/03/12 12:05:12;;;;;;;38.23;10.30;;;12.90;76.00;;;;;;5020334;28;20314;-85
2023/03/12 12:08:14;;;;;;;31.93;8.13;;;12.80;70.40;;;;;;5026419;28;20182;-85
2023/03/12 12:11:13;;;;;;;32.27;10.47;;;12.70;76.20;;;;;;5030403;28;20179;-86
2023/03/12 12:13:47;;;;;;;33.80;10.07;;;12.60;77.60;;;;;;4992390;28;20171;-84
2023/03/12 12:16:36;;;;;;;36.07;8.97;;;12.60;80.90;;;;;;5012997;28;20210;-85
2023/03/12 12:19:25;;;;;;;33.00;8.77;;;12.70;73.80;;;;;;4981307;28;20206;-86
2023/03/12 12:22:29;;;;;;;27.27;7.67;;;12.90;63.40;;;;;;5010383;28;20191;-86
2023/03/12 12:25:11;;;;;;;28.27;8.47;;;13.10;56.40;;;;;;4996557;28;20187;-85
2023/03/12 12:28:16;;;;;;;28.37;8.67;;;13.10;55.90;;;;;;5026665;28;20178;-87
2023/03/12 12:30:53;;;;;;;26.97;6.90;;;13.10;48.10;;;;;;4992090;28;20206;-84
2023/03/12 12:33:34;;;;;;;29.73;7.37;;;13.10;45.00;;;;;;5011304;28;20185;-87
2023/03/12 12:36:01;;;;;;;28.37;7.53;;;13.10;45.10;;;;;;5005440;28;20170;-88
2023/03/12 12:38:42;;;;;;;25.37;6.70;;;13.10;40.50;;;;;;5002722;28;20239;-87
2023/03/12 12:41:22;;;;;;;22.13;7.10;;;13.10;33.90;;;;;;5000095;28;20179;-88
2023/03/12 12:44:03;;;;;;;24.60;6.43;;;13.10;34.00;;;;;;5009238;28;20172;-89
2023/03/12 12:46:32;;;;;;;24.63;7.33;;;13.20;30.90;;;;;;5034536;28;20167;-88
2023/03/12 12:49:03;;;;;;;27.87;7.27;;;13.10;35.90;;;;;;5034656;28;20152;-88
2023/03/12 12:51:49;;;;;;;24.63;6.67;;;13.20;37.70;;;;;;5014250;28;20182;-87
2023/03/12 12:54:24;;;;;;;24.90;6.00;;;13.20;37.80;;;;;;5018822;28;20672;-87
2023/03/12 12:57:11;;;;;;;21.70;6.33;;;13.30;37.70;;;;;;4999730;28;20214;-88
2023/03/12 12:59:58;;;;;;;26.40;7.03;;;13.30;33.20;;;;;;4994972;28;20265;-86
2023/03/12 13:02:29;;;;;;;27.90;7.27;;;13.10;33.90;;;;;;4987979;28;20193;-87
2023/03/12 13:05:00;;;;;;;27.87;6.83;;;13.00;32.20;;;;;;5019002;28;20208;-87
2023/03/12 13:07:26;;;;;;;25.73;7.40;;;13.00;38.20;;;;;;5014695;28;20194;-86
2023/03/12 13:09:54;;;;;;;26.20;6.77;;;13.00;43.80;;;;;;5016139;28;20190;-87